Terminal Aerodrome Forecast
Issued by NWS

Home | Current Version | Previous Version | Text Only | Print | Product List | Glossary On
Versions: 1 2 3 4 5 6 7 8 9 10 11 12 13 14 15 16 17 18 19 20 21 22 23 24 25 26 27
935
FTUS43 KJKL 061802 AAC
TAFSME
TAF AMD
KSME 061802Z 0618/0718 00000KT 5SM -DZ OVC006
     FM062300 30010G16KT 5SM -DZ VCSH OVC007
     FM070300 VRB05KT P6SM OVC010
     FM070900 VRB04KT P6SM BKN020=

USA.gov is the U.S. government's official web portal to all federal, state and local government web resources and services.